PRIVATE WETTERSTATION BILLIGHEIM-ALLFELD                       ZURCK
Wetterdaten: Sonntag, 11.12.2016
Datum Zeit Temp. A. Temp. A. min Temp. A. max Feuchte A. Luftdruck Regen Wind Richtung Richtung Sonnenschein ET Solar Taupunkt Windchill Windben Empfang
11.12.2016 00:00 1,9 C 1,7 C 1,9 C 85 % 1023,3 hPa 0,0 l/m 0,0 km/h (0 Bft) N 0 0 min 0,000 mm 0 W/m -0,3 C 1,9 C 0,0 km/h (0 Bft) 98 %
11.12.2016 00:10 2,0 C 1,9 C 2,1 C 84 % 1023,2 hPa 0,0 l/m 1,6 km/h (1 Bft) S-SO 157 0 min 0,000 mm 0 W/m -0,4 C 2,0 C 4,8 km/h (1 Bft) 97 %
11.12.2016 00:20 1,8 C 1,8 C 2,0 C 85 % 1023,0 hPa 0,0 l/m 3,2 km/h (1 Bft) S-SO 157 0 min 0,000 mm 0 W/m -0,4 C 1,8 C 6,4 km/h (2 Bft) 87 %
11.12.2016 00:30 1,8 C 1,8 C 1,8 C 85 % 1022,9 hPa 0,0 l/m 1,6 km/h (1 Bft) S 180 0 min 0,000 mm 0 W/m -0,4 C 1,8 C 6,4 km/h (2 Bft) 97 %
11.12.2016 00:40 1,8 C 1,7 C 1,8 C 86 % 1022,7 hPa 0,0 l/m 3,2 km/h (1 Bft) S 180 0 min 0,000 mm 0 W/m -0,3 C 1,8 C 8,0 km/h (2 Bft) 97 %
11.12.2016 00:50 1,7 C 1,7 C 1,8 C 86 % 1022,6 hPa 0,0 l/m 4,8 km/h (1 Bft) S-SO 157 0 min 0,000 mm 0 W/m -0,4 C 1,7 C 9,7 km/h (2 Bft) 98 %
11.12.2016 01:00 1,8 C 1,6 C 1,8 C 87 % 1022,6 hPa 0,0 l/m 3,2 km/h (1 Bft) S-SO 157 0 min 0,000 mm 0 W/m -0,1 C 1,8 C 9,7 km/h (2 Bft) 97 %
11.12.2016 01:10 2,0 C 1,8 C 2,0 C 86 % 1022,4 hPa 0,0 l/m 4,8 km/h (1 Bft) S-SO 157 0 min 0,000 mm 0 W/m -0,1 C 2,0 C 8,0 km/h (2 Bft) 97 %
11.12.2016 01:20 2,1 C 2,0 C 2,1 C 86 % 1022,3 hPa 0,0 l/m 4,8 km/h (1 Bft) S-SO 157 0 min 0,000 mm 0 W/m 0,0 C 2,1 C 9,7 km/h (2 Bft) 98 %
11.12.2016 01:30 2,3 C 2,2 C 2,3 C 86 % 1022,3 hPa 0,0 l/m 3,2 km/h (1 Bft) SO 135 0 min 0,000 mm 0 W/m 0,2 C 2,3 C 8,0 km/h (2 Bft) 98 %
11.12.2016 01:40 2,4 C 2,3 C 2,4 C 85 % 1022,0 hPa 0,0 l/m 4,8 km/h (1 Bft) SO 135 0 min 0,000 mm 0 W/m 0,1 C 2,4 C 8,0 km/h (2 Bft) 98 %
11.12.2016 01:50 2,7 C 2,4 C 2,7 C 85 % 1021,9 hPa 0,0 l/m 3,2 km/h (1 Bft) SO 135 0 min 0,000 mm 0 W/m 0,4 C 2,7 C 9,7 km/h (2 Bft) 89 %
11.12.2016 02:00 2,8 C 2,7 C 2,8 C 84 % 1021,8 hPa 0,0 l/m 4,8 km/h (1 Bft) SO 135 0 min 0,000 mm 0 W/m 0,4 C 2,8 C 8,0 km/h (2 Bft) 97 %
11.12.2016 02:10 2,8 C 2,8 C 2,9 C 84 % 1021,8 hPa 0,0 l/m 3,2 km/h (1 Bft) SO 135 0 min 0,000 mm 0 W/m 0,4 C 2,8 C 8,0 km/h (2 Bft) 98 %
11.12.2016 02:20 2,7 C 2,7 C 2,8 C 84 % 1021,8 hPa 0,0 l/m 1,6 km/h (1 Bft) SO 135 0 min 0,000 mm 0 W/m 0,3 C 2,7 C 4,8 km/h (1 Bft) 98 %
11.12.2016 02:30 2,7 C 2,7 C 2,7 C 84 % 1021,6 hPa 0,0 l/m 1,6 km/h (1 Bft) SO 135 0 min 0,000 mm 0 W/m 0,3 C 2,7 C 6,4 km/h (2 Bft) 97 %
11.12.2016 02:40 2,7 C 2,7 C 2,7 C 84 % 1021,2 hPa 0,0 l/m 6,4 km/h (2 Bft) SO 135 0 min 0,000 mm 0 W/m 0,3 C 2,7 C 11,3 km/h (2 Bft) 98 %
11.12.2016 02:50 2,4 C 2,4 C 2,7 C 84 % 1021,5 hPa 0,0 l/m 6,4 km/h (2 Bft) SO 135 0 min 0,000 mm 0 W/m -0,0 C 2,4 C 11,3 km/h (2 Bft) 98 %
11.12.2016 03:00 2,3 C 2,3 C 2,4 C 85 % 1021,5 hPa 0,0 l/m 4,8 km/h (1 Bft) SO 135 0 min 0,000 mm 0 W/m 0,0 C 2,3 C 9,7 km/h (2 Bft) 98 %
11.12.2016 03:10 2,5 C 2,3 C 2,5 C 86 % 1021,4 hPa 0,0 l/m 6,4 km/h (2 Bft) SO 135 0 min 0,000 mm 0 W/m 0,4 C 2,5 C 9,7 km/h (2 Bft) 98 %
11.12.2016 03:20 2,8 C 2,6 C 2,8 C 84 % 1021,1 hPa 0,0 l/m 4,8 km/h (1 Bft) SO 135 0 min 0,000 mm 0 W/m 0,4 C 2,8 C 8,0 km/h (2 Bft) 97 %
11.12.2016 03:30 2,8 C 2,7 C 2,8 C 85 % 1021,1 hPa 0,0 l/m 1,6 km/h (1 Bft) SO 135 0 min 0,000 mm 0 W/m 0,5 C 2,8 C 6,4 km/h (2 Bft) 98 %
11.12.2016 03:40 2,9 C 2,8 C 2,9 C 85 % 1021,1 hPa 0,0 l/m 0,0 km/h (0 Bft) SO 135 0 min 0,000 mm 0 W/m 0,6 C 2,9 C 1,6 km/h (1 Bft) 85 %
11.12.2016 03:50 3,2 C 2,9 C 3,2 C 86 % 1021,2 hPa 0,0 l/m 0,0 km/h (0 Bft) SO 135 0 min 0,000 mm 0 W/m 1,1 C 3,2 C 4,8 km/h (1 Bft) 98 %
11.12.2016 04:00 3,3 C 3,2 C 3,3 C 85 % 1021,2 hPa 0,0 l/m 0,0 km/h (0 Bft) N 0 0 min 0,000 mm 0 W/m 1,0 C 3,3 C 0,0 km/h (0 Bft) 98 %
11.12.2016 04:10 3,0 C 3,0 C 3,3 C 84 % 1021,3 hPa 0,0 l/m 0,0 km/h (0 Bft) N 0 0 min 0,000 mm 0 W/m 0,6 C 3,0 C 0,0 km/h (0 Bft) 98 %
11.12.2016 04:20 2,8 C 2,8 C 3,0 C 86 % 1021,1 hPa 0,0 l/m 0,0 km/h (0 Bft) N 0 0 min 0,000 mm 0 W/m 0,7 C 2,8 C 0,0 km/h (0 Bft) 98 %
11.12.2016 04:30 3,0 C 2,8 C 3,0 C 87 % 1020,7 hPa 0,0 l/m 3,2 km/h (1 Bft) S-SO 157 0 min 0,000 mm 0 W/m 1,1 C 3,0 C 8,0 km/h (2 Bft) 100 %
11.12.2016 04:40 2,8 C 2,8 C 3,1 C 87 % 1020,7 hPa 0,0 l/m 3,2 km/h (1 Bft) SO 135 0 min 0,000 mm 0 W/m 0,9 C 2,8 C 9,7 km/h (2 Bft) 100 %
11.12.2016 04:50 2,6 C 2,6 C 2,8 C 87 % 1020,6 hPa 0,0 l/m 3,2 km/h (1 Bft) S-SO 157 0 min 0,000 mm 0 W/m 0,7 C 2,6 C 8,0 km/h (2 Bft) 100 %
11.12.2016 05:00 2,4 C 2,4 C 2,6 C 87 % 1020,7 hPa 0,0 l/m 3,2 km/h (1 Bft) S-SO 157 0 min 0,000 mm 0 W/m 0,5 C 2,4 C 8,0 km/h (2 Bft) 100 %
11.12.2016 05:10 2,2 C 2,2 C 2,4 C 87 % 1020,6 hPa 0,0 l/m 4,8 km/h (1 Bft) S-SO 157 0 min 0,000 mm 0 W/m 0,3 C 2,2 C 9,7 km/h (2 Bft) 100 %
11.12.2016 05:20 2,2 C 2,1 C 2,2 C 88 % 1020,4 hPa 0,0 l/m 4,8 km/h (1 Bft) S-SO 157 0 min 0,000 mm 0 W/m 0,4 C 2,2 C 9,7 km/h (2 Bft) 100 %
11.12.2016 05:30 2,3 C 2,2 C 2,3 C 89 % 1020,1 hPa 0,0 l/m 6,4 km/h (2 Bft) S-SO 157 0 min 0,000 mm 0 W/m 0,7 C 2,3 C 14,5 km/h (3 Bft) 99 %
11.12.2016 05:40 2,5 C 2,3 C 2,5 C 88 % 1020,0 hPa 0,0 l/m 3,2 km/h (1 Bft) S-SO 157 0 min 0,000 mm 0 W/m 0,7 C 2,5 C 9,7 km/h (2 Bft) 100 %
11.12.2016 05:50 2,4 C 2,4 C 2,5 C 88 % 1020,0 hPa 0,0 l/m 3,2 km/h (1 Bft) S-SO 157 0 min 0,000 mm 0 W/m 0,6 C 2,4 C 9,7 km/h (2 Bft) 100 %
11.12.2016 06:00 2,5 C 2,4 C 2,5 C 89 % 1019,9 hPa 0,0 l/m 3,2 km/h (1 Bft) S-SO 157 0 min 0,000 mm 0 W/m 0,9 C 2,5 C 6,4 km/h (2 Bft) 100 %
11.12.2016 06:10 2,6 C 2,5 C 2,6 C 89 % 1019,9 hPa 0,0 l/m 1,6 km/h (1 Bft) S-SO 157 0 min 0,000 mm 0 W/m 1,0 C 2,6 C 8,0 km/h (2 Bft) 100 %
11.12.2016 06:20 2,6 C 2,6 C 2,6 C 90 % 1019,8 hPa 0,0 l/m 3,2 km/h (1 Bft) S-SW 202 0 min 0,000 mm 0 W/m 1,1 C 2,6 C 11,3 km/h (2 Bft) 100 %
11.12.2016 06:30 2,9 C 2,7 C 2,9 C 90 % 1019,7 hPa 0,0 l/m 6,4 km/h (2 Bft) S-SW 202 0 min 0,000 mm 0 W/m 1,4 C 2,9 C 11,3 km/h (2 Bft) 100 %
11.12.2016 06:40 3,1 C 2,9 C 3,1 C 90 % 1019,8 hPa 0,0 l/m 6,4 km/h (2 Bft) S-SW 202 0 min 0,000 mm 0 W/m 1,6 C 3,1 C 12,9 km/h (3 Bft) 100 %
11.12.2016 06:50 3,4 C 3,1 C 3,4 C 90 % 1019,8 hPa 0,0 l/m 8,0 km/h (2 Bft) S-SW 202 0 min 0,000 mm 0 W/m 1,9 C 1,9 C 14,5 km/h (3 Bft) 100 %
11.12.2016 07:00 3,6 C 3,4 C 3,6 C 90 % 1019,9 hPa 0,0 l/m 8,0 km/h (2 Bft) S-SW 202 0 min 0,000 mm 0 W/m 2,1 C 2,1 C 17,7 km/h (3 Bft) 100 %
11.12.2016 07:10 3,9 C 3,6 C 3,9 C 91 % 1019,9 hPa 0,0 l/m 9,7 km/h (2 Bft) S-SW 202 0 min 0,000 mm 0 W/m 2,6 C 1,1 C 20,9 km/h (4 Bft) 91 %
11.12.2016 07:20 4,2 C 3,9 C 4,2 C 91 % 1019,7 hPa 0,0 l/m 9,7 km/h (2 Bft) S-SW 202 0 min 0,000 mm 0 W/m 2,9 C 1,4 C 22,5 km/h (4 Bft) 100 %
11.12.2016 07:30 4,4 C 4,2 C 4,4 C 91 % 1019,7 hPa 0,0 l/m 11,3 km/h (2 Bft) S-SW 202 0 min 0,000 mm 0 W/m 3,1 C 0,5 C 29,0 km/h (5 Bft) 100 %
11.12.2016 07:40 4,9 C 4,4 C 4,9 C 91 % 1020,1 hPa 0,2 l/m 9,7 km/h (2 Bft) SW 225 0 min 0,000 mm 0 W/m 3,6 C 2,2 C 22,5 km/h (4 Bft) 100 %
11.12.2016 07:50 5,3 C 4,9 C 5,3 C 91 % 1020,3 hPa 0,0 l/m 9,7 km/h (2 Bft) W-SW 247 0 min 0,000 mm 0 W/m 4,0 C 2,6 C 22,5 km/h (4 Bft) 100 %
11.12.2016 08:00 5,6 C 5,3 C 5,6 C 91 % 1020,3 hPa 0,0 l/m 17,7 km/h (3 Bft) W-SW 247 0 min 0,000 mm 0 W/m 4,2 C -1,5 C 40,2 km/h (6 Bft) 100 %
11.12.2016 08:10 5,6 C 5,6 C 5,6 C 91 % 1020,3 hPa 0,0 l/m 11,3 km/h (2 Bft) W-SW 247 0 min 0,000 mm 0 W/m 4,2 C 1,9 C 29,0 km/h (5 Bft) 99 %
11.12.2016 08:20 5,5 C 5,5 C 5,6 C 91 % 1020,7 hPa 0,2 l/m 6,4 km/h (2 Bft) W-SW 247 0 min 0,000 mm 0 W/m 4,2 C 5,5 C 17,7 km/h (3 Bft) 100 %
11.12.2016 08:30 5,4 C 5,4 C 5,5 C 92 % 1020,8 hPa 0,0 l/m 6,4 km/h (2 Bft) W-SW 247 0 min 0,000 mm 0 W/m 4,2 C 5,4 C 17,7 km/h (3 Bft) 100 %
11.12.2016 08:40 5,4 C 5,4 C 5,4 C 92 % 1021,0 hPa 0,0 l/m 8,0 km/h (2 Bft) W 270 0 min 0,000 mm 0 W/m 4,2 C 4,0 C 29,0 km/h (5 Bft) 100 %
11.12.2016 08:50 5,3 C 5,3 C 5,4 C 92 % 1021,1 hPa 0,0 l/m 11,3 km/h (2 Bft) W-SW 247 0 min 0,000 mm 0 W/m 4,1 C 1,5 C 29,0 km/h (5 Bft) 100 %
11.12.2016 09:00 5,2 C 5,2 C 5,3 C 91 % 1021,4 hPa 0,0 l/m 12,9 km/h (3 Bft) W-SW 247 0 min 0,000 mm 0 W/m 3,9 C 0,5 C 29,0 km/h (5 Bft) 100 %
11.12.2016 09:10 5,2 C 5,2 C 5,2 C 91 % 1021,5 hPa 0,0 l/m 9,7 km/h (2 Bft) W 270 0 min 0,000 mm 0 W/m 3,9 C 2,5 C 27,4 km/h (4 Bft) 100 %
11.12.2016 09:20 5,3 C 5,2 C 5,3 C 92 % 1021,7 hPa 0,0 l/m 12,9 km/h (3 Bft) W 270 0 min 0,000 mm 5 W/m 4,1 C 0,6 C 32,2 km/h (5 Bft) 91 %
11.12.2016 09:30 5,3 C 5,3 C 5,3 C 92 % 1021,9 hPa 0,0 l/m 11,3 km/h (2 Bft) W 270 0 min 0,000 mm 5 W/m 4,1 C 1,5 C 24,1 km/h (4 Bft) 100 %
11.12.2016 09:40 5,4 C 5,3 C 5,4 C 92 % 1022,1 hPa 0,0 l/m 12,9 km/h (3 Bft) W 270 0 min 0,000 mm 5 W/m 4,2 C 0,7 C 24,1 km/h (4 Bft) 100 %
11.12.2016 09:50 5,3 C 5,3 C 5,4 C 92 % 1022,2 hPa 0,0 l/m 9,7 km/h (2 Bft) W 270 0 min 0,000 mm 5 W/m 4,1 C 2,6 C 30,6 km/h (5 Bft) 100 %
11.12.2016 10:00 5,3 C 5,3 C 5,3 C 92 % 1022,2 hPa 0,0 l/m 14,5 km/h (3 Bft) W 270 0 min 0,000 mm 11 W/m 4,1 C -0,3 C 33,8 km/h (5 Bft) 100 %
11.12.2016 10:10 5,2 C 5,2 C 5,3 C 91 % 1022,2 hPa 0,0 l/m 14,5 km/h (3 Bft) W 270 0 min 0,000 mm 23 W/m 3,9 C -0,4 C 33,8 km/h (5 Bft) 100 %
11.12.2016 10:20 5,2 C 5,1 C 5,2 C 92 % 1022,2 hPa 0,2 l/m 12,9 km/h (3 Bft) W 270 0 min 0,000 mm 23 W/m 4,0 C 0,5 C 33,8 km/h (5 Bft) 100 %
11.12.2016 10:30 5,1 C 5,1 C 5,1 C 92 % 1022,4 hPa 0,0 l/m 6,4 km/h (2 Bft) W-SW 247 0 min 0,000 mm 44 W/m 3,9 C 5,1 C 19,3 km/h (3 Bft) 100 %
11.12.2016 10:40 5,1 C 5,1 C 5,1 C 92 % 1022,5 hPa 0,0 l/m 9,7 km/h (2 Bft) W-SW 247 0 min 0,000 mm 30 W/m 3,9 C 2,4 C 22,5 km/h (4 Bft) 100 %
11.12.2016 10:50 5,1 C 5,1 C 5,1 C 92 % 1022,4 hPa 0,0 l/m 8,0 km/h (2 Bft) W 270 0 min 0,000 mm 33 W/m 3,9 C 3,7 C 20,9 km/h (4 Bft) 100 %
11.12.2016 11:00 5,1 C 5,1 C 5,1 C 92 % 1022,4 hPa 0,0 l/m 6,4 km/h (2 Bft) W-SW 247 0 min 0,025 mm 39 W/m 3,9 C 5,1 C 17,7 km/h (3 Bft) 100 %
11.12.2016 11:10 5,1 C 5,1 C 5,1 C 92 % 1022,4 hPa 0,0 l/m 6,4 km/h (2 Bft) W 270 0 min 0,000 mm 30 W/m 3,9 C 5,1 C 16,1 km/h (3 Bft) 100 %
11.12.2016 11:20 5,0 C 5,0 C 5,1 C 92 % 1022,4 hPa 0,0 l/m 8,0 km/h (2 Bft) W-SW 247 0 min 0,000 mm 35 W/m 3,8 C 3,6 C 20,9 km/h (4 Bft) 100 %
11.12.2016 11:30 4,9 C 4,9 C 5,0 C 92 % 1022,6 hPa 0,0 l/m 8,0 km/h (2 Bft) W 270 0 min 0,000 mm 30 W/m 3,7 C 3,5 C 22,5 km/h (4 Bft) 100 %
11.12.2016 11:40 5,0 C 4,9 C 5,0 C 92 % 1022,7 hPa 0,0 l/m 6,4 km/h (2 Bft) W-SW 247 0 min 0,000 mm 35 W/m 3,8 C 5,0 C 19,3 km/h (3 Bft) 100 %
11.12.2016 11:50 5,1 C 5,0 C 5,1 C 92 % 1022,7 hPa 0,0 l/m 8,0 km/h (2 Bft) W 270 0 min 0,000 mm 42 W/m 3,9 C 3,7 C 16,1 km/h (3 Bft) 100 %
11.12.2016 12:00 5,1 C 5,1 C 5,1 C 92 % 1022,9 hPa 0,0 l/m 6,4 km/h (2 Bft) W 270 0 min 0,025 mm 25 W/m 3,9 C 5,1 C 16,1 km/h (3 Bft) 100 %
11.12.2016 12:10 5,1 C 5,1 C 5,1 C 92 % 1022,8 hPa 0,0 l/m 6,4 km/h (2 Bft) W-NW 292 0 min 0,000 mm 51 W/m 3,9 C 5,1 C 16,1 km/h (3 Bft) 100 %
11.12.2016 12:20 5,1 C 5,1 C 5,1 C 92 % 1022,8 hPa 0,0 l/m 8,0 km/h (2 Bft) W 270 0 min 0,000 mm 54 W/m 3,9 C 3,7 C 19,3 km/h (3 Bft) 100 %
11.12.2016 12:30 5,2 C 5,1 C 5,2 C 92 % 1022,7 hPa 0,0 l/m 8,0 km/h (2 Bft) W 270 0 min 0,000 mm 86 W/m 4,0 C 3,8 C 20,9 km/h (4 Bft) 100 %
11.12.2016 12:40 5,3 C 5,3 C 5,3 C 92 % 1022,6 hPa 0,0 l/m 8,0 km/h (2 Bft) W-SW 247 0 min 0,000 mm 84 W/m 4,1 C 3,9 C 20,9 km/h (4 Bft) 100 %
11.12.2016 12:50 5,4 C 5,3 C 5,4 C 92 % 1022,7 hPa 0,0 l/m 4,8 km/h (1 Bft) W 270 0 min 0,000 mm 83 W/m 4,2 C 5,4 C 19,3 km/h (3 Bft) 99 %
11.12.2016 13:00 5,4 C 5,4 C 5,4 C 92 % 1022,7 hPa 0,0 l/m 4,8 km/h (1 Bft) W 270 0 min 0,025 mm 84 W/m 4,2 C 5,4 C 16,1 km/h (3 Bft) 100 %
11.12.2016 13:10 5,6 C 5,4 C 5,6 C 92 % 1022,6 hPa 0,0 l/m 7,8 km/h (2 Bft) W 267 0 min 0,001 mm 70 W/m 4,4 C 4,4 C 16,1 km/h (3 Bft) 100 %
11.12.2016 13:20 5,7 C 5,6 C 5,7 C 92 % 1022,6 hPa 0,0 l/m 7,2 km/h (2 Bft) W 261 0 min 0,000 mm 107 W/m 4,5 C 5,0 C 19,3 km/h (3 Bft) 98 %
11.12.2016 13:30 5,8 C 5,7 C 5,8 C 92 % 1022,6 hPa 0,0 l/m 6,3 km/h (2 Bft) W 267 0 min 0,000 mm 113 W/m 4,6 C 5,8 C 17,7 km/h (3 Bft) 100 %
11.12.2016 13:40 6,0 C 5,8 C 6,0 C 92 % 1022,5 hPa 0,0 l/m 2,6 km/h (1 Bft) W 266 0 min 0,000 mm 76 W/m 4,8 C 6,0 C 14,5 km/h (3 Bft) 100 %
11.12.2016 13:50 6,1 C 6,0 C 6,1 C 92 % 1022,5 hPa 0,0 l/m 2,2 km/h (1 Bft) W 259 0 min 0,000 mm 62 W/m 4,9 C 6,1 C 9,7 km/h (2 Bft) 99 %
11.12.2016 14:00 6,2 C 6,1 C 6,2 C 92 % 1022,7 hPa 0,0 l/m 1,6 km/h (1 Bft) W 269 0 min 0,026 mm 49 W/m 5,0 C 6,2 C 8,0 km/h (2 Bft) 100 %
11.12.2016 14:10 6,2 C 6,2 C 6,2 C 92 % 1022,5 hPa 0,0 l/m 2,0 km/h (1 Bft) W 263 0 min 0,000 mm 51 W/m 5,0 C 6,2 C 16,1 km/h (3 Bft) 100 %
11.12.2016 14:20 6,2 C 6,2 C 6,2 C 92 % 1022,7 hPa 0,0 l/m 2,3 km/h (1 Bft) W 278 0 min 0,000 mm 44 W/m 5,0 C 6,2 C 9,7 km/h (2 Bft) 100 %
11.12.2016 14:30 6,2 C 6,2 C 6,2 C 92 % 1022,5 hPa 0,0 l/m 3,0 km/h (1 Bft) W-SW 244 0 min 0,000 mm 53 W/m 5,0 C 6,2 C 11,3 km/h (2 Bft) 91 %
11.12.2016 14:40 6,2 C 6,2 C 6,2 C 92 % 1022,6 hPa 0,0 l/m 1,9 km/h (1 Bft) W-SW 256 0 min 0,000 mm 40 W/m 5,0 C 6,2 C 9,7 km/h (2 Bft) 100 %
11.12.2016 14:50 6,3 C 6,2 C 6,3 C 92 % 1022,5 hPa 0,0 l/m 2,8 km/h (1 Bft) W-SW 252 0 min 0,000 mm 32 W/m 5,1 C 6,3 C 14,5 km/h (3 Bft) 100 %
11.12.2016 15:00 6,3 C 6,2 C 6,3 C 92 % 1022,6 hPa 0,0 l/m 5,7 km/h (1 Bft) S-SW 211 0 min 0,025 mm 23 W/m 5,1 C 6,3 C 16,1 km/h (3 Bft) 100 %
11.12.2016 15:10 6,3 C 6,3 C 6,3 C 92 % 1022,5 hPa 0,0 l/m 6,4 km/h (2 Bft) S-SW 196 0 min 0,000 mm 26 W/m 5,1 C 6,3 C 14,5 km/h (3 Bft) 100 %
11.12.2016 15:20 6,3 C 6,3 C 6,3 C 92 % 1022,5 hPa 0,0 l/m 6,4 km/h (2 Bft) S-SW 196 0 min 0,000 mm 25 W/m 5,1 C 6,3 C 14,5 km/h (3 Bft) 100 %
11.12.2016 15:30 6,3 C 6,3 C 6,3 C 92 % 1022,4 hPa 0,0 l/m 8,9 km/h (2 Bft) S 191 0 min 0,000 mm 23 W/m 5,1 C 4,3 C 19,3 km/h (3 Bft) 100 %
11.12.2016 15:40 6,3 C 6,3 C 6,3 C 92 % 1022,5 hPa 0,0 l/m 10,3 km/h (2 Bft) S-SW 205 0 min 0,000 mm 14 W/m 5,1 C 3,3 C 19,3 km/h (3 Bft) 100 %
11.12.2016 15:50 6,2 C 6,2 C 6,3 C 92 % 1022,4 hPa 0,0 l/m 9,9 km/h (2 Bft) S-SW 204 0 min 0,000 mm 7 W/m 5,0 C 3,5 C 19,3 km/h (3 Bft) 100 %
11.12.2016 16:00 6,1 C 6,1 C 6,2 C 92 % 1022,6 hPa 0,0 l/m 10,4 km/h (2 Bft) SW 228 0 min 0,025 mm 7 W/m 4,9 C 3,0 C 22,5 km/h (4 Bft) 100 %
11.12.2016 16:10 6,0 C 6,0 C 6,1 C 92 % 1022,7 hPa 0,0 l/m 10,2 km/h (2 Bft) S-SW 213 0 min 0,000 mm 0 W/m 4,8 C 3,0 C 19,3 km/h (3 Bft) 100 %
11.12.2016 16:20 5,9 C 5,9 C 6,0 C 92 % 1022,8 hPa 0,0 l/m 10,8 km/h (2 Bft) SW 227 0 min 0,000 mm 0 W/m 4,7 C 2,5 C 22,5 km/h (4 Bft) 100 %
11.12.2016 16:30 5,8 C 5,8 C 5,9 C 92 % 1022,9 hPa 0,0 l/m 9,0 km/h (2 Bft) W-SW 240 0 min 0,000 mm 0 W/m 4,6 C 3,7 C 19,3 km/h (3 Bft) 100 %
11.12.2016 16:40 5,7 C 5,7 C 5,8 C 92 % 1022,9 hPa 0,0 l/m 7,9 km/h (2 Bft) S-SW 206 0 min 0,000 mm 0 W/m 4,5 C 4,4 C 17,7 km/h (3 Bft) 91 %
11.12.2016 16:50 5,6 C 5,6 C 5,7 C 92 % 1022,9 hPa 0,0 l/m 9,1 km/h (2 Bft) SW 215 0 min 0,000 mm 0 W/m 4,4 C 3,4 C 20,9 km/h (4 Bft) 100 %
11.12.2016 17:00 5,6 C 5,6 C 5,6 C 92 % 1023,0 hPa 0,0 l/m 9,3 km/h (2 Bft) W 265 0 min 0,000 mm 0 W/m 4,4 C 3,2 C 19,3 km/h (3 Bft) 100 %
11.12.2016 17:10 5,5 C 5,5 C 5,6 C 92 % 1023,0 hPa 0,0 l/m 8,3 km/h (2 Bft) S-SW 213 0 min 0,000 mm 0 W/m 4,3 C 3,9 C 19,3 km/h (3 Bft) 100 %
11.12.2016 17:20 5,5 C 5,5 C 5,6 C 92 % 1023,1 hPa 0,0 l/m 7,0 km/h (2 Bft) S-SW 203 0 min 0,000 mm 0 W/m 4,3 C 5,0 C 16,1 km/h (3 Bft) 100 %
11.12.2016 17:30 5,5 C 5,5 C 5,5 C 92 % 1023,3 hPa 0,0 l/m 9,3 km/h (2 Bft) SW 231 0 min 0,000 mm 0 W/m 4,3 C 3,1 C 20,9 km/h (4 Bft) 100 %
11.12.2016 17:40 5,4 C 5,4 C 5,5 C 92 % 1023,3 hPa 0,0 l/m 7,5 km/h (2 Bft) SW 220 0 min 0,000 mm 0 W/m 4,2 C 4,4 C 19,3 km/h (3 Bft) 100 %
11.12.2016 17:50 5,4 C 5,4 C 5,5 C 92 % 1023,4 hPa 0,0 l/m 7,8 km/h (2 Bft) W-SW 246 0 min 0,000 mm 0 W/m 4,2 C 4,2 C 22,5 km/h (4 Bft) 100 %
11.12.2016 18:00 5,5 C 5,4 C 5,5 C 92 % 1023,3 hPa 0,0 l/m 8,5 km/h (2 Bft) S-SW 211 0 min 0,000 mm 0 W/m 4,3 C 3,7 C 19,3 km/h (3 Bft) 100 %
11.12.2016 18:10 5,4 C 5,4 C 5,5 C 92 % 1023,3 hPa 0,0 l/m 4,7 km/h (1 Bft) SW 234 0 min 0,000 mm 0 W/m 4,2 C 5,4 C 11,3 km/h (2 Bft) 100 %
11.12.2016 18:20 5,3 C 5,3 C 5,4 C 92 % 1023,2 hPa 0,0 l/m 5,2 km/h (1 Bft) SW 223 0 min 0,000 mm 0 W/m 4,1 C 5,3 C 17,7 km/h (3 Bft) 100 %
11.12.2016 18:30 5,2 C 5,2 C 5,3 C 92 % 1023,2 hPa 0,0 l/m 7,6 km/h (2 Bft) SW 221 0 min 0,000 mm 0 W/m 4,0 C 4,1 C 20,9 km/h (4 Bft) 100 %
11.12.2016 18:40 5,1 C 5,1 C 5,2 C 92 % 1023,2 hPa 0,0 l/m 8,7 km/h (2 Bft) S-SW 213 0 min 0,000 mm 0 W/m 3,9 C 3,1 C 24,1 km/h (4 Bft) 100 %
11.12.2016 18:50 5,1 C 5,1 C 5,2 C 92 % 1023,3 hPa 0,0 l/m 6,6 km/h (2 Bft) SW 216 0 min 0,000 mm 0 W/m 3,9 C 4,9 C 16,1 km/h (3 Bft) 100 %
11.12.2016 19:00 5,0 C 5,0 C 5,1 C 92 % 1023,3 hPa 0,0 l/m 8,5 km/h (2 Bft) SW 228 0 min 0,000 mm 0 W/m 3,8 C 3,2 C 17,7 km/h (3 Bft) 100 %
11.12.2016 19:10 5,0 C 5,0 C 5,1 C 92 % 1023,3 hPa 0,0 l/m 6,5 km/h (2 Bft) SW 232 0 min 0,000 mm 0 W/m 3,8 C 4,9 C 16,1 km/h (3 Bft) 100 %
11.12.2016 19:20 5,0 C 5,0 C 5,0 C 92 % 1023,1 hPa 0,0 l/m 5,0 km/h (1 Bft) S-SW 211 0 min 0,000 mm 0 W/m 3,8 C 5,0 C 19,3 km/h (3 Bft) 100 %
11.12.2016 19:30 5,0 C 4,9 C 5,0 C 92 % 1023,2 hPa 0,0 l/m 6,6 km/h (2 Bft) S-SW 201 0 min 0,000 mm 0 W/m 3,8 C 4,8 C 12,9 km/h (3 Bft) 100 %
11.12.2016 19:40 4,9 C 4,9 C 5,0 C 92 % 1023,3 hPa 0,0 l/m 5,4 km/h (1 Bft) SW 223 0 min 0,000 mm 0 W/m 3,7 C 4,9 C 14,5 km/h (3 Bft) 95 %
11.12.2016 19:50 4,9 C 4,9 C 4,9 C 92 % 1023,3 hPa 0,0 l/m 5,0 km/h (1 Bft) SW 228 0 min 0,000 mm 0 W/m 3,7 C 4,9 C 14,5 km/h (3 Bft) 95 %
11.12.2016 20:00 4,9 C 4,9 C 4,9 C 92 % 1023,3 hPa 0,0 l/m 5,2 km/h (1 Bft) SW 218 0 min 0,000 mm 0 W/m 3,7 C 4,9 C 17,7 km/h (3 Bft) 100 %
11.12.2016 20:10 4,9 C 4,9 C 4,9 C 92 % 1023,3 hPa 0,0 l/m 3,8 km/h (1 Bft) W-SW 249 0 min 0,000 mm 0 W/m 3,7 C 4,9 C 16,1 km/h (3 Bft) 99 %
11.12.2016 20:20 4,9 C 4,9 C 4,9 C 92 % 1023,4 hPa 0,0 l/m 3,0 km/h (1 Bft) SW 236 0 min 0,000 mm 0 W/m 3,7 C 4,9 C 14,5 km/h (3 Bft) 100 %
11.12.2016 20:30 4,9 C 4,9 C 4,9 C 92 % 1023,4 hPa 0,0 l/m 3,8 km/h (1 Bft) SW 236 0 min 0,000 mm 0 W/m 3,7 C 4,9 C 12,9 km/h (3 Bft) 100 %
11.12.2016 20:40 4,9 C 4,9 C 4,9 C 92 % 1023,3 hPa 0,0 l/m 3,7 km/h (1 Bft) W-SW 254 0 min 0,000 mm 0 W/m 3,7 C 4,9 C 11,3 km/h (2 Bft) 100 %
11.12.2016 20:50 4,9 C 4,9 C 4,9 C 92 % 1023,3 hPa 0,0 l/m 3,1 km/h (1 Bft) SW 229 0 min 0,000 mm 0 W/m 3,7 C 4,9 C 9,7 km/h (2 Bft) 100 %
11.12.2016 21:00 4,9 C 4,9 C 4,9 C 92 % 1023,2 hPa 0,0 l/m 3,6 km/h (1 Bft) S-SW 213 0 min 0,000 mm 0 W/m 3,7 C 4,9 C 14,5 km/h (3 Bft) 100 %
11.12.2016 21:10 4,9 C 4,9 C 4,9 C 92 % 1023,2 hPa 0,0 l/m 3,2 km/h (1 Bft) SW 225 0 min 0,000 mm 0 W/m 3,7 C 4,9 C 11,3 km/h (2 Bft) 100 %
11.12.2016 21:20 4,9 C 4,9 C 4,9 C 92 % 1023,2 hPa 0,0 l/m 3,2 km/h (1 Bft) SW 225 0 min 0,000 mm 0 W/m 3,7 C 4,9 C 12,9 km/h (3 Bft) 100 %
11.12.2016 21:30 4,8 C 4,8 C 4,9 C 92 % 1023,1 hPa 0,0 l/m 3,2 km/h (1 Bft) SW 225 0 min 0,000 mm 0 W/m 3,6 C 4,8 C 9,7 km/h (2 Bft) 100 %
11.12.2016 21:40 4,8 C 4,8 C 4,8 C 92 % 1023,2 hPa 0,0 l/m 1,6 km/h (1 Bft) W-SW 247 0 min 0,000 mm 0 W/m 3,6 C 4,8 C 11,3 km/h (2 Bft) 100 %
11.12.2016 21:50 4,9 C 4,8 C 4,9 C 92 % 1023,5 hPa 0,0 l/m 6,4 km/h (2 Bft) W 270 0 min 0,000 mm 0 W/m 3,7 C 4,9 C 19,3 km/h (3 Bft) 100 %
11.12.2016 22:00 4,9 C 4,9 C 4,9 C 92 % 1023,4 hPa 0,0 l/m 9,7 km/h (2 Bft) W 270 0 min 0,000 mm 0 W/m 3,7 C 2,2 C 22,5 km/h (4 Bft) 100 %
11.12.2016 22:10 4,9 C 4,9 C 4,9 C 92 % 1023,2 hPa 0,0 l/m 9,7 km/h (2 Bft) W 270 0 min 0,000 mm 0 W/m 3,7 C 2,2 C 19,3 km/h (3 Bft) 100 %
11.12.2016 22:20 4,9 C 4,9 C 5,0 C 92 % 1023,1 hPa 0,0 l/m 9,7 km/h (2 Bft) W 270 0 min 0,000 mm 0 W/m 3,7 C 2,2 C 25,7 km/h (4 Bft) 100 %
11.12.2016 22:30 4,9 C 4,9 C 4,9 C 92 % 1023,0 hPa 0,0 l/m 8,0 km/h (2 Bft) W-SW 247 0 min 0,000 mm 0 W/m 3,7 C 3,5 C 19,3 km/h (3 Bft) 100 %
11.12.2016 22:40 4,9 C 4,9 C 4,9 C 92 % 1023,0 hPa 0,0 l/m 6,4 km/h (2 Bft) W-SW 247 0 min 0,000 mm 0 W/m 3,7 C 4,9 C 17,7 km/h (3 Bft) 100 %
11.12.2016 22:50 4,8 C 4,8 C 4,9 C 92 % 1023,1 hPa 0,0 l/m 1,6 km/h (1 Bft) W-SW 247 0 min 0,000 mm 0 W/m 3,6 C 4,8 C 11,3 km/h (2 Bft) 100 %
11.12.2016 23:00 4,8 C 4,8 C 4,8 C 92 % 1023,3 hPa 0,0 l/m 1,6 km/h (1 Bft) W 270 0 min 0,000 mm 0 W/m 3,6 C 4,8 C 11,3 km/h (2 Bft) 100 %
11.12.2016 23:10 4,7 C 4,7 C 4,8 C 92 % 1023,3 hPa 0,0 l/m 1,6 km/h (1 Bft) W-SW 247 0 min 0,000 mm 0 W/m 3,5 C 4,7 C 14,5 km/h (3 Bft) 100 %
11.12.2016 23:20 4,7 C 4,7 C 4,7 C 92 % 1023,4 hPa 0,0 l/m 1,6 km/h (1 Bft) W-SW 247 0 min 0,000 mm 0 W/m 3,5 C 4,7 C 8,0 km/h (2 Bft) 100 %
11.12.2016 23:30 4,7 C 4,7 C 4,7 C 92 % 1023,4 hPa 0,0 l/m 0,0 km/h (0 Bft) W 270 0 min 0,000 mm 0 W/m 3,5 C 4,7 C 1,6 km/h (1 Bft) 100 %
11.12.2016 23:40 4,7 C 4,7 C 4,7 C 92 % 1023,3 hPa 0,0 l/m 3,2 km/h (1 Bft) W-SW 247 0 min 0,000 mm 0 W/m 3,5 C 4,7 C 14,5 km/h (3 Bft) 100 %
11.12.2016 23:50 4,7 C 4,7 C 4,7 C 92 % 1023,3 hPa 0,0 l/m 4,8 km/h (1 Bft) W 270 0 min 0,000 mm 0 W/m 3,5 C 4,7 C 14,5 km/h (3 Bft) 100 %
_ Min-Zeit 01:00 01:00 00:30 00:10 06:30 - 00:00 - - - - - 00:20 08:00 00:00 03:40
Minimum _ 1,6 C 1,6 C 1,8 C 84 % 1019,7 hPa - 0,0 km/h (0 Bft) - - - - - -0,4 C -1,5 C 0,0 km/h (0 Bft) 85 %
_ Max-Zeit 14:50 15:10 14:50 08:30 21:50 07:40 08:00 - - 00:00 14:00 13:30 14:50 15:10 08:00 04:30
Maximum _ 6,3 C 6,3 C 6,3 C 92 % 1023,5 hPa 0,2 l/m 17,7 km/h
W-SW (3 Bft)
- - 0 min 0,026 mm 113 W/m 5,1 C 6,3 C 40,2 km/h
SW (6 Bft)
100 %
Durchschnitt _ 4,5 C 4,4 C 4,5 C 90 % 1022,2 hPa #0,6 l/m 6,0 km/h (2 Bft) W - #0 min. #0,152 mm 41 W/m 3,0 C 3,5 C 15,5 km/h (3 Bft) 99 %
PRIVATE WETTERSTATION BILLIGHEIM-ALLFELD - www.neckar-odenwald-wetter.de - Holger Sonntag